sensor_id;sensor_type;location;lat;lon;timestamp;temperature;humidity
69084;SHT31;56185;48.526;9.044;2023-06-14T00:00:24;16.23;49.01
69084;SHT31;56185;48.526;9.044;2023-06-14T00:02:49;16.43;48.98
69084;SHT31;56185;48.526;9.044;2023-06-14T00:05:14;16.37;48.82
69084;SHT31;56185;48.526;9.044;2023-06-14T00:07:41;16.20;49.47
69084;SHT31;56185;48.526;9.044;2023-06-14T00:10:07;16.20;49.83
69084;SHT31;56185;48.526;9.044;2023-06-14T00:12:32;16.47;48.77
69084;SHT31;56185;48.526;9.044;2023-06-14T00:14:58;16.37;50.75
69084;SHT31;56185;48.526;9.044;2023-06-14T00:17:23;16.46;50.40
69084;SHT31;56185;48.526;9.044;2023-06-14T00:19:49;16.33;50.73
69084;SHT31;56185;48.526;9.044;2023-06-14T00:22:14;16.16;51.64
69084;SHT31;56185;48.526;9.044;2023-06-14T00:24:39;15.95;52.19
69084;SHT31;56185;48.526;9.044;2023-06-14T00:27:05;15.78;52.85
69084;SHT31;56185;48.526;9.044;2023-06-14T00:29:30;15.69;53.24
69084;SHT31;56185;48.526;9.044;2023-06-14T00:31:55;15.61;52.79
69084;SHT31;56185;48.526;9.044;2023-06-14T00:34:20;15.41;53.25
69084;SHT31;56185;48.526;9.044;2023-06-14T00:36:46;15.68;52.42
69084;SHT31;56185;48.526;9.044;2023-06-14T00:39:11;15.79;52.27
69084;SHT31;56185;48.526;9.044;2023-06-14T00:41:36;15.55;53.02
69084;SHT31;56185;48.526;9.044;2023-06-14T00:44:01;15.40;53.14
69084;SHT31;56185;48.526;9.044;2023-06-14T00:46:27;15.34;53.27
69084;SHT31;56185;48.526;9.044;2023-06-14T00:48:52;15.23;53.42
69084;SHT31;56185;48.526;9.044;2023-06-14T00:51:18;15.20;53.55
69084;SHT31;56185;48.526;9.044;2023-06-14T00:53:44;15.20;53.37
69084;SHT31;56185;48.526;9.044;2023-06-14T00:56:09;15.02;53.49
69084;SHT31;56185;48.526;9.044;2023-06-14T00:58:34;14.92;54.26
69084;SHT31;56185;48.526;9.044;2023-06-14T01:01:00;14.87;54.55
69084;SHT31;56185;48.526;9.044;2023-06-14T01:03:25;14.75;54.88
69084;SHT31;56185;48.526;9.044;2023-06-14T01:06:02;14.79;55.01
69084;SHT31;56185;48.526;9.044;2023-06-14T01:08:38;14.83;55.00
69084;SHT31;56185;48.526;9.044;2023-06-14T01:11:12;14.82;54.62
69084;SHT31;56185;48.526;9.044;2023-06-14T01:13:45;14.82;54.93
69084;SHT31;56185;48.526;9.044;2023-06-14T01:16:11;14.85;54.72
69084;SHT31;56185;48.526;9.044;2023-06-14T01:18:37;14.80;55.54
69084;SHT31;56185;48.526;9.044;2023-06-14T01:21:02;15.10;53.96
69084;SHT31;56185;48.526;9.044;2023-06-14T01:23:28;15.24;54.01
69084;SHT31;56185;48.526;9.044;2023-06-14T01:25:53;15.27;53.46
69084;SHT31;56185;48.526;9.044;2023-06-14T01:28:20;15.11;54.47
69084;SHT31;56185;48.526;9.044;2023-06-14T01:30:50;15.00;55.12
69084;SHT31;56185;48.526;9.044;2023-06-14T01:33:21;14.83;56.21
69084;SHT31;56185;48.526;9.044;2023-06-14T01:35:49;14.82;56.38
69084;SHT31;56185;48.526;9.044;2023-06-14T01:38:16;14.71;56.26
69084;SHT31;56185;48.526;9.044;2023-06-14T01:40:43;14.80;55.78
69084;SHT31;56185;48.526;9.044;2023-06-14T01:43:09;14.68;55.99
69084;SHT31;56185;48.526;9.044;2023-06-14T01:45:36;14.89;55.34
69084;SHT31;56185;48.526;9.044;2023-06-14T01:48:02;14.97;55.03
69084;SHT31;56185;48.526;9.044;2023-06-14T01:50:29;14.93;55.10
69084;SHT31;56185;48.526;9.044;2023-06-14T01:52:55;15.00;54.75
69084;SHT31;56185;48.526;9.044;2023-06-14T01:55:20;15.03;54.58
69084;SHT31;56185;48.526;9.044;2023-06-14T01:57:46;15.06;54.28
69084;SHT31;56185;48.526;9.044;2023-06-14T02:00:11;14.96;55.00
69084;SHT31;56185;48.526;9.044;2023-06-14T02:02:37;14.71;56.43
69084;SHT31;56185;48.526;9.044;2023-06-14T02:05:02;14.51;57.26
69084;SHT31;56185;48.526;9.044;2023-06-14T02:07:28;14.52;57.35
69084;SHT31;56185;48.526;9.044;2023-06-14T02:09:53;14.65;56.38
69084;SHT31;56185;48.526;9.044;2023-06-14T02:12:18;14.59;56.50
69084;SHT31;56185;48.526;9.044;2023-06-14T02:14:43;14.56;56.64
69084;SHT31;56185;48.526;9.044;2023-06-14T02:17:09;14.56;56.49
69084;SHT31;56185;48.526;9.044;2023-06-14T02:19:34;14.58;56.21
69084;SHT31;56185;48.526;9.044;2023-06-14T02:21:59;14.54;56.35
69084;SHT31;56185;48.526;9.044;2023-06-14T02:24:24;14.58;56.52
69084;SHT31;56185;48.526;9.044;2023-06-14T02:26:49;14.54;56.60
69084;SHT31;56185;48.526;9.044;2023-06-14T02:29:15;14.49;57.26
69084;SHT31;56185;48.526;9.044;2023-06-14T02:31:40;14.42;56.44
69084;SHT31;56185;48.526;9.044;2023-06-14T02:34:06;14.39;56.50
69084;SHT31;56185;48.526;9.044;2023-06-14T02:36:31;14.35;56.90
69084;SHT31;56185;48.526;9.044;2023-06-14T02:38:57;14.44;56.28
69084;SHT31;56185;48.526;9.044;2023-06-14T02:41:22;14.39;56.42
69084;SHT31;56185;48.526;9.044;2023-06-14T02:43:47;14.35;56.69
69084;SHT31;56185;48.526;9.044;2023-06-14T02:46:12;14.26;56.86
69084;SHT31;56185;48.526;9.044;2023-06-14T02:48:38;13.87;58.82
69084;SHT31;56185;48.526;9.044;2023-06-14T02:51:03;13.96;58.87
69084;SHT31;56185;48.526;9.044;2023-06-14T02:53:28;13.78;59.71
69084;SHT31;56185;48.526;9.044;2023-06-14T02:55:53;13.47;60.56
69084;SHT31;56185;48.526;9.044;2023-06-14T02:58:19;13.34;60.41
69084;SHT31;56185;48.526;9.044;2023-06-14T03:00:44;13.45;60.14
69084;SHT31;56185;48.526;9.044;2023-06-14T03:03:09;13.50;59.66
69084;SHT31;56185;48.526;9.044;2023-06-14T03:05:34;13.57;59.35
69084;SHT31;56185;48.526;9.044;2023-06-14T03:08:00;13.55;59.67
69084;SHT31;56185;48.526;9.044;2023-06-14T03:10:25;13.52;59.41
69084;SHT31;56185;48.526;9.044;2023-06-14T03:12:50;13.35;60.34
69084;SHT31;56185;48.526;9.044;2023-06-14T03:15:16;13.23;60.82
69084;SHT31;56185;48.526;9.044;2023-06-14T03:17:42;13.26;60.68
69084;SHT31;56185;48.526;9.044;2023-06-14T03:20:07;13.32;60.52
69084;SHT31;56185;48.526;9.044;2023-06-14T03:22:33;13.40;59.79
69084;SHT31;56185;48.526;9.044;2023-06-14T03:24:58;13.49;59.70
69084;SHT31;56185;48.526;9.044;2023-06-14T03:27:23;13.36;60.61
69084;SHT31;56185;48.526;9.044;2023-06-14T03:29:48;13.16;60.91
69084;SHT31;56185;48.526;9.044;2023-06-14T03:32:14;13.22;60.71
69084;SHT31;56185;48.526;9.044;2023-06-14T03:34:39;13.04;61.24
69084;SHT31;56185;48.526;9.044;2023-06-14T03:37:04;12.89;61.98
69084;SHT31;56185;48.526;9.044;2023-06-14T03:39:30;12.73;62.71
69084;SHT31;56185;48.526;9.044;2023-06-14T03:41:55;12.65;63.21
69084;SHT31;56185;48.526;9.044;2023-06-14T03:44:20;12.67;63.64
69084;SHT31;56185;48.526;9.044;2023-06-14T03:46:47;12.58;63.95
69084;SHT31;56185;48.526;9.044;2023-06-14T03:49:13;12.73;63.83
69084;SHT31;56185;48.526;9.044;2023-06-14T03:51:39;12.88;62.63
69084;SHT31;56185;48.526;9.044;2023-06-14T03:54:04;13.09;60.60
69084;SHT31;56185;48.526;9.044;2023-06-14T03:56:29;13.18;59.94
69084;SHT31;56185;48.526;9.044;2023-06-14T03:58:54;13.16;60.08
69084;SHT31;56185;48.526;9.044;2023-06-14T04:01:20;13.22;60.08
69084;SHT31;56185;48.526;9.044;2023-06-14T04:03:45;13.22;59.95
69084;SHT31;56185;48.526;9.044;2023-06-14T04:06:10;13.35;59.47
69084;SHT31;56185;48.526;9.044;2023-06-14T04:08:35;13.39;59.65
69084;SHT31;56185;48.526;9.044;2023-06-14T04:11:01;13.29;59.46
69084;SHT31;56185;48.526;9.044;2023-06-14T04:13:27;13.35;59.43
69084;SHT31;56185;48.526;9.044;2023-06-14T04:15:52;13.32;59.36
69084;SHT31;56185;48.526;9.044;2023-06-14T04:18:17;13.04;60.48
69084;SHT31;56185;48.526;9.044;2023-06-14T04:20:43;13.14;60.31
69084;SHT31;56185;48.526;9.044;2023-06-14T04:23:14;13.12;60.45
69084;SHT31;56185;48.526;9.044;2023-06-14T04:25:39;13.16;59.59
69084;SHT31;56185;48.526;9.044;2023-06-14T04:28:05;13.26;59.08
69084;SHT31;56185;48.526;9.044;2023-06-14T04:30:30;13.22;59.27
69084;SHT31;56185;48.526;9.044;2023-06-14T04:32:55;13.34;59.00
69084;SHT31;56185;48.526;9.044;2023-06-14T04:35:20;13.28;58.81
69084;SHT31;56185;48.526;9.044;2023-06-14T04:37:46;13.32;58.76
69084;SHT31;56185;48.526;9.044;2023-06-14T04:40:11;13.20;59.47
69084;SHT31;56185;48.526;9.044;2023-06-14T04:42:36;13.12;59.74
69084;SHT31;56185;48.526;9.044;2023-06-14T04:45:02;13.35;58.83
69084;SHT31;56185;48.526;9.044;2023-06-14T04:47:27;13.25;59.05
69084;SHT31;56185;48.526;9.044;2023-06-14T04:49:53;13.35;59.16
69084;SHT31;56185;48.526;9.044;2023-06-14T04:52:19;13.39;58.87
69084;SHT31;56185;48.526;9.044;2023-06-14T04:54:44;13.32;58.77
69084;SHT31;56185;48.526;9.044;2023-06-14T04:57:10;13.30;59.04
69084;SHT31;56185;48.526;9.044;2023-06-14T04:59:35;13.42;59.20
69084;SHT31;56185;48.526;9.044;2023-06-14T05:02:01;13.47;59.23
69084;SHT31;56185;48.526;9.044;2023-06-14T05:04:26;13.53;59.19
69084;SHT31;56185;48.526;9.044;2023-06-14T05:06:52;13.59;58.68
69084;SHT31;56185;48.526;9.044;2023-06-14T05:09:17;13.74;58.64
69084;SHT31;56185;48.526;9.044;2023-06-14T05:11:42;13.87;58.23
69084;SHT31;56185;48.526;9.044;2023-06-14T05:14:07;13.87;58.17
69084;SHT31;56185;48.526;9.044;2023-06-14T05:16:33;13.98;58.20
69084;SHT31;56185;48.526;9.044;2023-06-14T05:18:58;14.05;58.02
69084;SHT31;56185;48.526;9.044;2023-06-14T05:21:23;13.98;58.37
69084;SHT31;56185;48.526;9.044;2023-06-14T05:23:49;14.05;58.13
69084;SHT31;56185;48.526;9.044;2023-06-14T05:26:15;14.13;57.89
69084;SHT31;56185;48.526;9.044;2023-06-14T05:28:40;14.25;57.83
69084;SHT31;56185;48.526;9.044;2023-06-14T05:31:05;14.38;57.79
69084;SHT31;56185;48.526;9.044;2023-06-14T05:33:30;14.38;56.70
69084;SHT31;56185;48.526;9.044;2023-06-14T05:35:56;14.42;56.82
69084;SHT31;56185;48.526;9.044;2023-06-14T05:38:21;14.65;55.92
69084;SHT31;56185;48.526;9.044;2023-06-14T05:40:46;14.55;56.53
69084;SHT31;56185;48.526;9.044;2023-06-14T05:43:12;14.56;56.36
69084;SHT31;56185;48.526;9.044;2023-06-14T05:45:38;14.54;57.14
69084;SHT31;56185;48.526;9.044;2023-06-14T05:48:03;14.66;56.84
69084;SHT31;56185;48.526;9.044;2023-06-14T05:50:30;14.75;56.32
69084;SHT31;56185;48.526;9.044;2023-06-14T05:52:55;14.76;56.41
69084;SHT31;56185;48.526;9.044;2023-06-14T05:55:20;14.76;56.94
69084;SHT31;56185;48.526;9.044;2023-06-14T05:57:46;14.80;55.14
69084;SHT31;56185;48.526;9.044;2023-06-14T06:00:11;14.79;55.64
69084;SHT31;56185;48.526;9.044;2023-06-14T06:02:37;14.89;56.13
69084;SHT31;56185;48.526;9.044;2023-06-14T06:05:02;14.87;56.35
69084;SHT31;56185;48.526;9.044;2023-06-14T06:07:28;14.92;54.89
69084;SHT31;56185;48.526;9.044;2023-06-14T06:09:53;14.85;55.28
69084;SHT31;56185;48.526;9.044;2023-06-14T06:12:18;14.87;56.26
69084;SHT31;56185;48.526;9.044;2023-06-14T06:14:43;15.07;54.90
69084;SHT31;56185;48.526;9.044;2023-06-14T06:17:09;15.16;54.54
69084;SHT31;56185;48.526;9.044;2023-06-14T06:19:34;15.20;55.36
69084;SHT31;56185;48.526;9.044;2023-06-14T06:21:59;15.33;54.04
69084;SHT31;56185;48.526;9.044;2023-06-14T06:24:24;15.34;54.07
69084;SHT31;56185;48.526;9.044;2023-06-14T06:26:49;15.38;54.55
69084;SHT31;56185;48.526;9.044;2023-06-14T06:29:15;15.41;54.49
69084;SHT31;56185;48.526;9.044;2023-06-14T06:31:40;15.54;53.91
69084;SHT31;56185;48.526;9.044;2023-06-14T06:34:05;15.68;54.57
69084;SHT31;56185;48.526;9.044;2023-06-14T06:36:30;15.82;54.63
69084;SHT31;56185;48.526;9.044;2023-06-14T06:38:56;15.82;54.23
69084;SHT31;56185;48.526;9.044;2023-06-14T06:41:21;15.83;53.60
69084;SHT31;56185;48.526;9.044;2023-06-14T06:43:46;15.89;54.87
69084;SHT31;56185;48.526;9.044;2023-06-14T06:46:11;16.05;53.44
69084;SHT31;56185;48.526;9.044;2023-06-14T06:48:37;16.14;53.76
69084;SHT31;56185;48.526;9.044;2023-06-14T06:51:02;16.19;54.50
69084;SHT31;56185;48.526;9.044;2023-06-14T06:53:27;16.27;52.96
69084;SHT31;56185;48.526;9.044;2023-06-14T06:55:52;16.37;52.94
69084;SHT31;56185;48.526;9.044;2023-06-14T06:58:18;16.36;53.27
69084;SHT31;56185;48.526;9.044;2023-06-14T07:00:43;16.44;53.41
69084;SHT31;56185;48.526;9.044;2023-06-14T07:03:08;16.54;53.21
69084;SHT31;56185;48.526;9.044;2023-06-14T07:05:33;16.68;52.83
69084;SHT31;56185;48.526;9.044;2023-06-14T07:07:58;16.72;52.66
69084;SHT31;56185;48.526;9.044;2023-06-14T07:10:24;16.78;52.80
69084;SHT31;56185;48.526;9.044;2023-06-14T07:12:50;16.82;51.58
69084;SHT31;56185;48.526;9.044;2023-06-14T07:15:15;16.87;52.74
69084;SHT31;56185;48.526;9.044;2023-06-14T07:17:40;17.04;51.39
69084;SHT31;56185;48.526;9.044;2023-06-14T07:20:06;17.12;52.63
69084;SHT31;56185;48.526;9.044;2023-06-14T07:22:31;17.18;51.55
69084;SHT31;56185;48.526;9.044;2023-06-14T07:24:57;17.38;50.83
69084;SHT31;56185;48.526;9.044;2023-06-14T07:27:22;17.42;50.40
69084;SHT31;56185;48.526;9.044;2023-06-14T07:29:47;17.46;50.35
69084;SHT31;56185;48.526;9.044;2023-06-14T07:32:12;17.62;49.09
69084;SHT31;56185;48.526;9.044;2023-06-14T07:34:37;17.67;49.13
69084;SHT31;56185;48.526;9.044;2023-06-14T07:37:03;17.76;49.88
69084;SHT31;56185;48.526;9.044;2023-06-14T07:39:28;17.91;49.06
69084;SHT31;56185;48.526;9.044;2023-06-14T07:41:54;18.04;50.04
69084;SHT31;56185;48.526;9.044;2023-06-14T07:44:19;18.04;49.08
69084;SHT31;56185;48.526;9.044;2023-06-14T07:46:44;18.18;50.07
69084;SHT31;56185;48.526;9.044;2023-06-14T07:49:09;18.29;49.68
69084;SHT31;56185;48.526;9.044;2023-06-14T07:51:34;18.42;49.63
69084;SHT31;56185;48.526;9.044;2023-06-14T07:54:00;18.56;49.16
69084;SHT31;56185;48.526;9.044;2023-06-14T07:56:25;18.68;49.62
69084;SHT31;56185;48.526;9.044;2023-06-14T07:58:50;18.73;48.50
69084;SHT31;56185;48.526;9.044;2023-06-14T08:01:15;18.75;49.03
69084;SHT31;56185;48.526;9.044;2023-06-14T08:03:41;18.96;49.11
69084;SHT31;56185;48.526;9.044;2023-06-14T08:06:06;19.23;47.59
69084;SHT31;56185;48.526;9.044;2023-06-14T08:08:32;19.27;48.45
69084;SHT31;56185;48.526;9.044;2023-06-14T08:10:57;19.34;47.61
69084;SHT31;56185;48.526;9.044;2023-06-14T08:13:22;19.44;48.59
69084;SHT31;56185;48.526;9.044;2023-06-14T08:15:47;19.57;47.42
69084;SHT31;56185;48.526;9.044;2023-06-14T08:18:13;19.69;46.40
69084;SHT31;56185;48.526;9.044;2023-06-14T08:20:38;19.81;47.49
69084;SHT31;56185;48.526;9.044;2023-06-14T08:23:03;19.89;46.68
69084;SHT31;56185;48.526;9.044;2023-06-14T08:25:29;19.95;46.71
69084;SHT31;56185;48.526;9.044;2023-06-14T08:27:54;20.09;46.24
69084;SHT31;56185;48.526;9.044;2023-06-14T08:30:20;20.19;43.93
69084;SHT31;56185;48.526;9.044;2023-06-14T08:32:45;20.36;43.04
69084;SHT31;56185;48.526;9.044;2023-06-14T08:35:10;20.53;44.13
69084;SHT31;56185;48.526;9.044;2023-06-14T08:37:41;20.60;41.94
69084;SHT31;56185;48.526;9.044;2023-06-14T08:40:18;20.81;40.16
69084;SHT31;56185;48.526;9.044;2023-06-14T08:42:44;20.90;39.93
69084;SHT31;56185;48.526;9.044;2023-06-14T08:45:10;21.02;40.04
69084;SHT31;56185;48.526;9.044;2023-06-14T08:47:37;21.11;39.51
69084;SHT31;56185;48.526;9.044;2023-06-14T08:50:03;21.15;38.95
69084;SHT31;56185;48.526;9.044;2023-06-14T08:52:32;21.19;40.36
69084;SHT31;56185;48.526;9.044;2023-06-14T08:55:00;21.31;38.29
69084;SHT31;56185;48.526;9.044;2023-06-14T08:57:26;21.35;39.34
69084;SHT31;56185;48.526;9.044;2023-06-14T08:59:53;21.41;39.57
69084;SHT31;56185;48.526;9.044;2023-06-14T09:02:18;21.52;38.52
69084;SHT31;56185;48.526;9.044;2023-06-14T09:04:43;21.59;39.18
69084;SHT31;56185;48.526;9.044;2023-06-14T09:07:09;21.59;38.92
69084;SHT31;56185;48.526;9.044;2023-06-14T09:09:38;21.69;39.45
69084;SHT31;56185;48.526;9.044;2023-06-14T09:12:07;21.73;38.89
69084;SHT31;56185;48.526;9.044;2023-06-14T09:14:33;21.76;39.56
69084;SHT31;56185;48.526;9.044;2023-06-14T09:16:58;21.94;39.01
69084;SHT31;56185;48.526;9.044;2023-06-14T09:19:24;22.04;38.98
69084;SHT31;56185;48.526;9.044;2023-06-14T09:21:49;22.07;38.78
69084;SHT31;56185;48.526;9.044;2023-06-14T09:24:15;22.14;39.43
69084;SHT31;56185;48.526;9.044;2023-06-14T09:26:40;22.22;38.87
69084;SHT31;56185;48.526;9.044;2023-06-14T09:29:05;22.30;38.81
69084;SHT31;56185;48.526;9.044;2023-06-14T09:31:31;22.42;38.64
69084;SHT31;56185;48.526;9.044;2023-06-14T09:33:56;22.51;39.14
69084;SHT31;56185;48.526;9.044;2023-06-14T09:36:23;22.51;38.28
69084;SHT31;56185;48.526;9.044;2023-06-14T09:39:07;22.55;37.09
69084;SHT31;56185;48.526;9.044;2023-06-14T09:41:40;22.55;38.26
69084;SHT31;56185;48.526;9.044;2023-06-14T09:44:09;22.69;37.35
69084;SHT31;56185;48.526;9.044;2023-06-14T09:46:36;22.76;37.93
69084;SHT31;56185;48.526;9.044;2023-06-14T09:49:02;22.77;37.96
69084;SHT31;56185;48.526;9.044;2023-06-14T09:51:29;22.86;36.59
69084;SHT31;56185;48.526;9.044;2023-06-14T09:54:00;22.95;35.88
69084;SHT31;56185;48.526;9.044;2023-06-14T09:56:31;22.98;36.75
69084;SHT31;56185;48.526;9.044;2023-06-14T09:58:57;23.09;37.45
69084;SHT31;56185;48.526;9.044;2023-06-14T10:01:24;23.20;37.30
69084;SHT31;56185;48.526;9.044;2023-06-14T10:03:50;23.27;36.78
69084;SHT31;56185;48.526;9.044;2023-06-14T10:06:16;23.24;34.94
69084;SHT31;56185;48.526;9.044;2023-06-14T10:08:42;23.27;35.87
69084;SHT31;56185;48.526;9.044;2023-06-14T10:11:07;23.31;36.58
69084;SHT31;56185;48.526;9.044;2023-06-14T10:13:34;23.37;34.76
69084;SHT31;56185;48.526;9.044;2023-06-14T10:16:24;23.40;35.31
69084;SHT31;56185;48.526;9.044;2023-06-14T10:19:07;23.36;34.59
69084;SHT31;56185;48.526;9.044;2023-06-14T10:21:58;23.53;32.88
69084;SHT31;56185;48.526;9.044;2023-06-14T10:24:29;23.54;34.17
69084;SHT31;56185;48.526;9.044;2023-06-14T10:26:57;23.72;34.24
69084;SHT31;56185;48.526;9.044;2023-06-14T10:29:23;23.82;34.14
69084;SHT31;56185;48.526;9.044;2023-06-14T10:31:50;23.89;33.45
69084;SHT31;56185;48.526;9.044;2023-06-14T10:34:29;23.99;32.22
69084;SHT31;56185;48.526;9.044;2023-06-14T10:37:11;24.04;33.04
69084;SHT31;56185;48.526;9.044;2023-06-14T10:39:44;24.12;33.19
69084;SHT31;56185;48.526;9.044;2023-06-14T10:42:10;24.09;31.05
69084;SHT31;56185;48.526;9.044;2023-06-14T10:44:55;24.06;32.85
69084;SHT31;56185;48.526;9.044;2023-06-14T10:47:50;24.23;34.16
69084;SHT31;56185;48.526;9.044;2023-06-14T10:50:15;24.29;31.26
69084;SHT31;56185;48.526;9.044;2023-06-14T10:52:41;24.36;32.18
69084;SHT31;56185;48.526;9.044;2023-06-14T10:55:10;24.02;31.04
69084;SHT31;56185;48.526;9.044;2023-06-14T10:57:39;24.30;32.35
69084;SHT31;56185;48.526;9.044;2023-06-14T11:00:05;24.49;32.03
69084;SHT31;56185;48.526;9.044;2023-06-14T11:02:46;24.29;32.26
69084;SHT31;56185;48.526;9.044;2023-06-14T11:05:15;24.35;31.63
69084;SHT31;56185;48.526;9.044;2023-06-14T11:08:10;24.18;32.36
69084;SHT31;56185;48.526;9.044;2023-06-14T11:10:40;24.16;32.20
69084;SHT31;56185;48.526;9.044;2023-06-14T11:13:06;24.25;32.72
69084;SHT31;56185;48.526;9.044;2023-06-14T11:15:33;24.41;32.76
69084;SHT31;56185;48.526;9.044;2023-06-14T11:18:02;24.59;32.50
69084;SHT31;56185;48.526;9.044;2023-06-14T11:20:30;24.49;31.40
69084;SHT31;56185;48.526;9.044;2023-06-14T11:22:56;24.56;31.74
69084;SHT31;56185;48.526;9.044;2023-06-14T11:25:21;24.53;30.27
69084;SHT31;56185;48.526;9.044;2023-06-14T11:27:49;24.57;30.08
69084;SHT31;56185;48.526;9.044;2023-06-14T11:30:15;24.70;32.45
69084;SHT31;56185;48.526;9.044;2023-06-14T11:32:40;24.80;32.01
69084;SHT31;56185;48.526;9.044;2023-06-14T11:35:06;24.81;31.36
69084;SHT31;56185;48.526;9.044;2023-06-14T11:37:31;24.91;31.35
69084;SHT31;56185;48.526;9.044;2023-06-14T11:39:57;24.87;31.26
69084;SHT31;56185;48.526;9.044;2023-06-14T11:42:23;25.01;31.49
69084;SHT31;56185;48.526;9.044;2023-06-14T11:45:14;25.08;29.93
69084;SHT31;56185;48.526;9.044;2023-06-14T11:47:40;25.12;29.74
69084;SHT31;56185;48.526;9.044;2023-06-14T11:50:09;25.27;30.62
69084;SHT31;56185;48.526;9.044;2023-06-14T11:52:36;25.36;29.45
69084;SHT31;56185;48.526;9.044;2023-06-14T11:55:02;25.31;28.46
69084;SHT31;56185;48.526;9.044;2023-06-14T11:57:27;25.35;28.55
69084;SHT31;56185;48.526;9.044;2023-06-14T11:59:54;25.38;29.44
69084;SHT31;56185;48.526;9.044;2023-06-14T12:02:21;25.41;29.00
69084;SHT31;56185;48.526;9.044;2023-06-14T12:04:47;25.45;29.67
69084;SHT31;56185;48.526;9.044;2023-06-14T12:07:14;25.53;30.24
69084;SHT31;56185;48.526;9.044;2023-06-14T12:09:39;25.59;28.82
69084;SHT31;56185;48.526;9.044;2023-06-14T12:12:05;25.79;30.61
69084;SHT31;56185;48.526;9.044;2023-06-14T12:14:31;25.86;28.65
69084;SHT31;56185;48.526;9.044;2023-06-14T12:17:06;25.89;28.10
69084;SHT31;56185;48.526;9.044;2023-06-14T12:19:31;25.96;29.58
69084;SHT31;56185;48.526;9.044;2023-06-14T12:21:59;25.82;29.63
69084;SHT31;56185;48.526;9.044;2023-06-14T12:24:28;25.87;30.73
69084;SHT31;56185;48.526;9.044;2023-06-14T12:26:53;26.03;30.07
69084;SHT31;56185;48.526;9.044;2023-06-14T12:29:19;25.90;29.65
69084;SHT31;56185;48.526;9.044;2023-06-14T12:31:44;26.04;29.85
69084;SHT31;56185;48.526;9.044;2023-06-14T12:34:09;26.12;29.82
69084;SHT31;56185;48.526;9.044;2023-06-14T12:36:35;26.25;28.35
69084;SHT31;56185;48.526;9.044;2023-06-14T12:39:00;26.37;29.01
69084;SHT31;56185;48.526;9.044;2023-06-14T12:41:25;26.43;28.64
69084;SHT31;56185;48.526;9.044;2023-06-14T12:43:50;26.24;28.93
69084;SHT31;56185;48.526;9.044;2023-06-14T12:46:16;26.44;28.46
69084;SHT31;56185;48.526;9.044;2023-06-14T12:48:41;26.51;28.03
69084;SHT31;56185;48.526;9.044;2023-06-14T12:51:06;26.54;28.68
69084;SHT31;56185;48.526;9.044;2023-06-14T12:53:32;26.45;28.98
69084;SHT31;56185;48.526;9.044;2023-06-14T12:55:57;26.35;28.95
69084;SHT31;56185;48.526;9.044;2023-06-14T12:58:22;26.44;29.08
69084;SHT31;56185;48.526;9.044;2023-06-14T13:00:47;26.38;28.49
69084;SHT31;56185;48.526;9.044;2023-06-14T13:03:13;26.49;29.26
69084;SHT31;56185;48.526;9.044;2023-06-14T13:05:38;26.58;28.09
69084;SHT31;56185;48.526;9.044;2023-06-14T13:08:03;26.52;28.50
69084;SHT31;56185;48.526;9.044;2023-06-14T13:10:29;26.49;29.23
69084;SHT31;56185;48.526;9.044;2023-06-14T13:12:54;26.55;28.17
69084;SHT31;56185;48.526;9.044;2023-06-14T13:15:19;26.59;28.63
69084;SHT31;56185;48.526;9.044;2023-06-14T13:17:44;26.68;28.59
69084;SHT31;56185;48.526;9.044;2023-06-14T13:20:10;26.79;29.49
69084;SHT31;56185;48.526;9.044;2023-06-14T13:22:35;26.82;28.12
69084;SHT31;56185;48.526;9.044;2023-06-14T13:25:01;27.00;28.25
69084;SHT31;56185;48.526;9.044;2023-06-14T13:27:27;27.16;27.63
69084;SHT31;56185;48.526;9.044;2023-06-14T13:29:53;27.12;27.85
69084;SHT31;56185;48.526;9.044;2023-06-14T13:32:21;27.13;28.13
69084;SHT31;56185;48.526;9.044;2023-06-14T13:34:46;27.22;28.30
69084;SHT31;56185;48.526;9.044;2023-06-14T13:37:11;27.26;28.40
69084;SHT31;56185;48.526;9.044;2023-06-14T13:39:36;27.17;27.20
69084;SHT31;56185;48.526;9.044;2023-06-14T13:42:02;27.36;27.04
69084;SHT31;56185;48.526;9.044;2023-06-14T13:44:27;27.14;27.34
69084;SHT31;56185;48.526;9.044;2023-06-14T13:46:52;27.22;27.17
69084;SHT31;56185;48.526;9.044;2023-06-14T13:49:17;27.32;27.52
69084;SHT31;56185;48.526;9.044;2023-06-14T13:51:43;27.36;27.13
69084;SHT31;56185;48.526;9.044;2023-06-14T13:54:08;27.34;27.33
69084;SHT31;56185;48.526;9.044;2023-06-14T13:56:33;27.47;27.01
69084;SHT31;56185;48.526;9.044;2023-06-14T13:58:58;27.65;26.76
69084;SHT31;56185;48.526;9.044;2023-06-14T14:01:24;27.74;26.92
69084;SHT31;56185;48.526;9.044;2023-06-14T14:03:49;27.85;27.45
69084;SHT31;56185;48.526;9.044;2023-06-14T14:06:15;27.88;25.97
69084;SHT31;56185;48.526;9.044;2023-06-14T14:08:43;27.81;26.70
69084;SHT31;56185;48.526;9.044;2023-06-14T14:11:09;27.46;27.23
69084;SHT31;56185;48.526;9.044;2023-06-14T14:13:35;27.36;27.22
69084;SHT31;56185;48.526;9.044;2023-06-14T14:16:00;27.37;27.79
69084;SHT31;56185;48.526;9.044;2023-06-14T14:18:25;27.10;28.08
69084;SHT31;56185;48.526;9.044;2023-06-14T14:20:52;26.98;28.40
69084;SHT31;56185;48.526;9.044;2023-06-14T14:23:17;26.91;28.49
69084;SHT31;56185;48.526;9.044;2023-06-14T14:25:42;26.82;27.96
69084;SHT31;56185;48.526;9.044;2023-06-14T14:28:07;26.71;28.49
69084;SHT31;56185;48.526;9.044;2023-06-14T14:30:33;26.91;29.11
69084;SHT31;56185;48.526;9.044;2023-06-14T14:32:58;27.16;29.21
69084;SHT31;56185;48.526;9.044;2023-06-14T14:35:23;27.29;27.59
69084;SHT31;56185;48.526;9.044;2023-06-14T14:37:48;27.44;27.87
69084;SHT31;56185;48.526;9.044;2023-06-14T14:40:14;27.36;28.01
69084;SHT31;56185;48.526;9.044;2023-06-14T14:42:39;27.39;28.54
69084;SHT31;56185;48.526;9.044;2023-06-14T14:45:06;27.50;27.72
69084;SHT31;56185;48.526;9.044;2023-06-14T14:47:31;27.44;28.15
69084;SHT31;56185;48.526;9.044;2023-06-14T14:49:57;27.67;27.86
69084;SHT31;56185;48.526;9.044;2023-06-14T14:52:22;27.70;27.78
69084;SHT31;56185;48.526;9.044;2023-06-14T14:54:48;27.61;27.54
69084;SHT31;56185;48.526;9.044;2023-06-14T14:57:16;27.68;28.30
69084;SHT31;56185;48.526;9.044;2023-06-14T14:59:41;27.70;26.98
69084;SHT31;56185;48.526;9.044;2023-06-14T15:02:40;27.67;27.42
69084;SHT31;56185;48.526;9.044;2023-06-14T15:04:59;27.67;27.32
69084;SHT31;56185;48.526;9.044;2023-06-14T15:07:24;27.78;27.31
69084;SHT31;56185;48.526;9.044;2023-06-14T15:09:50;27.85;26.91
69084;SHT31;56185;48.526;9.044;2023-06-14T15:12:15;27.82;26.94
69084;SHT31;56185;48.526;9.044;2023-06-14T15:14:40;27.70;26.72
69084;SHT31;56185;48.526;9.044;2023-06-14T15:17:05;27.73;26.83
69084;SHT31;56185;48.526;9.044;2023-06-14T15:19:30;27.76;26.77
69084;SHT31;56185;48.526;9.044;2023-06-14T15:21:56;27.78;27.27
69084;SHT31;56185;48.526;9.044;2023-06-14T15:24:21;27.64;27.95